sensor_id;sensor_type;location;lat;lon;timestamp;pressure;altitude;pressure_sealevel;temperature;humidity
22862;BME280;11598;50.652;6.172;2024-02-26T00:06:38;94470.88;;;3.04;100.00
22862;BME280;11598;50.652;6.172;2024-02-26T00:16:41;94459.91;;;3.02;100.00
22862;BME280;11598;50.652;6.172;2024-02-26T00:26:42;94452.91;;;3.04;100.00
22862;BME280;11598;50.652;6.172;2024-02-26T00:36:42;94461.88;;;2.99;100.00
22862;BME280;11598;50.652;6.172;2024-02-26T00:46:42;94457.47;;;2.89;100.00
22862;BME280;11598;50.652;6.172;2024-02-26T00:56:43;94464.91;;;2.81;100.00
22862;BME280;11598;50.652;6.172;2024-02-26T01:06:43;94461.06;;;2.75;100.00
22862;BME280;11598;50.652;6.172;2024-02-26T01:16:43;94465.50;;;2.73;100.00
22862;BME280;11598;50.652;6.172;2024-02-26T01:26:44;94455.13;;;2.64;100.00
22862;BME280;11598;50.652;6.172;2024-02-26T01:36:44;94453.25;;;2.54;100.00
22862;BME280;11598;50.652;6.172;2024-02-26T01:46:45;94439.97;;;2.49;100.00
22862;BME280;11598;50.652;6.172;2024-02-26T01:56:45;94444.50;;;2.46;100.00
22862;BME280;11598;50.652;6.172;2024-02-26T02:06:45;94438.31;;;2.48;100.00
22862;BME280;11598;50.652;6.172;2024-02-26T02:16:47;94421.88;;;2.51;100.00
22862;BME280;11598;50.652;6.172;2024-02-26T02:26:47;94434.50;;;2.54;100.00
22862;BME280;11598;50.652;6.172;2024-02-26T02:36:52;94427.63;;;2.54;100.00
22862;BME280;11598;50.652;6.172;2024-02-26T02:46:52;94419.78;;;2.56;100.00
22862;BME280;11598;50.652;6.172;2024-02-26T02:56:53;94398.03;;;2.62;100.00
22862;BME280;11598;50.652;6.172;2024-02-26T03:06:53;94410.50;;;2.66;100.00
22862;BME280;11598;50.652;6.172;2024-02-26T03:16:54;94429.34;;;2.65;100.00
22862;BME280;11598;50.652;6.172;2024-02-26T03:26:55;94437.88;;;2.54;100.00
22862;BME280;11598;50.652;6.172;2024-02-26T03:36:56;94432.81;;;2.42;100.00
22862;BME280;11598;50.652;6.172;2024-02-26T03:46:57;94437.34;;;2.27;100.00
22862;BME280;11598;50.652;6.172;2024-02-26T03:56:58;94429.16;;;2.10;100.00
22862;BME280;11598;50.652;6.172;2024-02-26T04:06:58;94421.31;;;1.89;100.00
22862;BME280;11598;50.652;6.172;2024-02-26T04:16:59;94417.56;;;1.82;100.00
22862;BME280;11598;50.652;6.172;2024-02-26T04:26:59;94424.44;;;1.82;100.00
22862;BME280;11598;50.652;6.172;2024-02-26T04:36:59;94425.00;;;1.85;100.00
22862;BME280;11598;50.652;6.172;2024-02-26T04:47:00;94426.09;;;1.94;100.00
22862;BME280;11598;50.652;6.172;2024-02-26T04:57:02;94432.41;;;2.01;100.00
22862;BME280;11598;50.652;6.172;2024-02-26T05:07:02;94442.06;;;2.09;100.00
22862;BME280;11598;50.652;6.172;2024-02-26T05:17:03;94445.94;;;2.15;100.00
22862;BME280;11598;50.652;6.172;2024-02-26T05:27:04;94455.16;;;2.17;100.00
22862;BME280;11598;50.652;6.172;2024-02-26T05:37:04;94464.25;;;2.21;100.00
22862;BME280;11598;50.652;6.172;2024-02-26T05:47:04;94469.03;;;2.26;100.00
22862;BME280;11598;50.652;6.172;2024-02-26T05:57:05;94484.19;;;2.29;100.00
22862;BME280;11598;50.652;6.172;2024-02-26T06:07:05;94497.00;;;2.29;100.00
22862;BME280;11598;50.652;6.172;2024-02-26T06:17:06;94516.16;;;2.23;100.00
22862;BME280;11598;50.652;6.172;2024-02-26T06:27:07;94522.34;;;2.21;100.00
22862;BME280;11598;50.652;6.172;2024-02-26T06:37:08;94547.06;;;2.22;100.00
22862;BME280;11598;50.652;6.172;2024-02-26T06:47:09;94555.78;;;2.19;100.00
22862;BME280;11598;50.652;6.172;2024-02-26T06:57:09;94569.28;;;2.21;100.00
22862;BME280;11598;50.652;6.172;2024-02-26T07:07:09;94588.13;;;2.20;100.00
22862;BME280;11598;50.652;6.172;2024-02-26T07:17:10;94600.63;;;2.25;100.00
22862;BME280;11598;50.652;6.172;2024-02-26T07:27:11;94625.81;;;2.31;100.00
22862;BME280;11598;50.652;6.172;2024-02-26T07:37:11;94633.38;;;2.32;100.00
22862;BME280;11598;50.652;6.172;2024-02-26T07:47:12;94655.31;;;2.37;100.00
22862;BME280;11598;50.652;6.172;2024-02-26T07:57:12;94660.34;;;2.38;100.00
22862;BME280;11598;50.652;6.172;2024-02-26T08:07:15;94664.13;;;2.32;100.00
22862;BME280;11598;50.652;6.172;2024-02-26T08:17:16;94684.03;;;2.29;100.00
22862;BME280;11598;50.652;6.172;2024-02-26T08:27:16;94690.78;;;2.30;100.00
22862;BME280;11598;50.652;6.172;2024-02-26T08:37:16;94706.97;;;2.30;100.00
22862;BME280;11598;50.652;6.172;2024-02-26T08:47:17;94717.31;;;2.42;100.00
22862;BME280;11598;50.652;6.172;2024-02-26T08:57:17;94736.25;;;2.52;100.00
22862;BME280;11598;50.652;6.172;2024-02-26T09:07:17;94748.84;;;2.55;100.00
22862;BME280;11598;50.652;6.172;2024-02-26T09:17:18;94755.19;;;2.62;100.00
22862;BME280;11598;50.652;6.172;2024-02-26T09:27:18;94767.94;;;2.51;100.00
22862;BME280;11598;50.652;6.172;2024-02-26T09:37:19;94779.84;;;2.39;100.00
22862;BME280;11598;50.652;6.172;2024-02-26T09:47:19;94800.88;;;2.31;100.00
22862;BME280;11598;50.652;6.172;2024-02-26T09:57:21;94800.47;;;2.25;100.00
22862;BME280;11598;50.652;6.172;2024-02-26T10:07:24;94815.13;;;2.23;100.00
22862;BME280;11598;50.652;6.172;2024-02-26T10:17:26;94821.28;;;2.20;100.00
22862;BME280;11598;50.652;6.172;2024-02-26T10:27:28;94826.59;;;2.30;100.00
22862;BME280;11598;50.652;6.172;2024-02-26T10:37:28;94833.56;;;2.28;100.00
22862;BME280;11598;50.652;6.172;2024-02-26T10:47:29;94845.94;;;2.47;100.00
22862;BME280;11598;50.652;6.172;2024-02-26T10:57:33;94863.38;;;2.67;100.00
22862;BME280;11598;50.652;6.172;2024-02-26T11:07:35;94876.06;;;2.82;100.00
22862;BME280;11598;50.652;6.172;2024-02-26T11:17:39;94895.63;;;2.95;100.00
22862;BME280;11598;50.652;6.172;2024-02-26T11:27:43;94897.31;;;3.08;100.00
22862;BME280;11598;50.652;6.172;2024-02-26T11:37:55;94906.53;;;3.23;100.00
22862;BME280;11598;50.652;6.172;2024-02-26T11:47:56;94915.94;;;3.35;100.00
22862;BME280;11598;50.652;6.172;2024-02-26T11:57:57;94915.94;;;3.35;100.00
22862;BME280;11598;50.652;6.172;2024-02-26T12:18:06;94934.09;;;3.69;100.00
22862;BME280;11598;50.652;6.172;2024-02-26T12:28:07;94962.69;;;3.52;100.00
22862;BME280;11598;50.652;6.172;2024-02-26T12:38:07;94985.41;;;3.45;100.00
22862;BME280;11598;50.652;6.172;2024-02-26T12:48:08;94994.16;;;3.43;100.00
22862;BME280;11598;50.652;6.172;2024-02-26T12:58:09;95005.56;;;3.38;100.00
22862;BME280;11598;50.652;6.172;2024-02-26T13:08:17;95018.84;;;3.32;100.00
22862;BME280;11598;50.652;6.172;2024-02-26T13:18:18;95031.75;;;3.31;100.00
22862;BME280;11598;50.652;6.172;2024-02-26T13:28:18;95049.94;;;3.28;100.00
22862;BME280;11598;50.652;6.172;2024-02-26T13:38:19;95050.66;;;3.30;100.00
22862;BME280;11598;50.652;6.172;2024-02-26T13:48:20;95066.66;;;3.33;100.00
22862;BME280;11598;50.652;6.172;2024-02-26T13:58:20;95085.88;;;3.28;100.00
22862;BME280;11598;50.652;6.172;2024-02-26T14:08:23;95091.00;;;3.28;100.00
22862;BME280;11598;50.652;6.172;2024-02-26T14:18:24;95093.59;;;3.28;100.00
22862;BME280;11598;50.652;6.172;2024-02-26T14:28:24;95115.22;;;3.24;100.00
22862;BME280;11598;50.652;6.172;2024-02-26T14:38:27;95132.91;;;3.28;100.00
22862;BME280;11598;50.652;6.172;2024-02-26T14:48:27;95147.19;;;3.32;100.00
22862;BME280;11598;50.652;6.172;2024-02-26T14:58:29;95155.47;;;3.36;100.00
22862;BME280;11598;50.652;6.172;2024-02-26T15:08:29;95175.09;;;3.37;100.00
22862;BME280;11598;50.652;6.172;2024-02-26T15:18:30;95188.66;;;3.39;100.00
22862;BME280;11598;50.652;6.172;2024-02-26T15:28:30;95203.34;;;3.37;100.00
22862;BME280;11598;50.652;6.172;2024-02-26T15:38:31;95217.94;;;3.36;100.00
22862;BME280;11598;50.652;6.172;2024-02-26T15:48:32;95236.00;;;3.35;100.00
22862;BME280;11598;50.652;6.172;2024-02-26T15:58:32;95245.53;;;3.33;100.00
22862;BME280;11598;50.652;6.172;2024-02-26T16:08:33;95266.06;;;3.33;100.00
22862;BME280;11598;50.652;6.172;2024-02-26T16:18:34;95292.13;;;3.27;100.00
22862;BME280;11598;50.652;6.172;2024-02-26T16:28:35;95305.38;;;3.21;100.00
22862;BME280;11598;50.652;6.172;2024-02-26T16:38:35;95334.50;;;3.20;100.00
22862;BME280;11598;50.652;6.172;2024-02-26T16:48:37;95348.81;;;3.24;100.00
22862;BME280;11598;50.652;6.172;2024-02-26T16:58:38;95361.63;;;3.24;100.00
22862;BME280;11598;50.652;6.172;2024-02-26T17:08:38;95386.41;;;3.25;100.00
22862;BME280;11598;50.652;6.172;2024-02-26T17:18:38;95404.53;;;3.22;100.00
22862;BME280;11598;50.652;6.172;2024-02-26T17:28:39;95434.34;;;3.10;100.00
22862;BME280;11598;50.652;6.172;2024-02-26T17:38:42;95445.03;;;2.89;100.00
22862;BME280;11598;50.652;6.172;2024-02-26T17:48:42;95467.38;;;2.73;100.00
22862;BME280;11598;50.652;6.172;2024-02-26T17:58:43;95490.13;;;2.63;100.00
22862;BME280;11598;50.652;6.172;2024-02-26T18:08:45;95523.19;;;2.53;100.00
22862;BME280;11598;50.652;6.172;2024-02-26T18:18:45;95538.47;;;2.41;100.00
22862;BME280;11598;50.652;6.172;2024-02-26T18:28:48;95553.34;;;2.34;100.00
22862;BME280;11598;50.652;6.172;2024-02-26T18:38:49;95573.28;;;2.29;100.00
22862;BME280;11598;50.652;6.172;2024-02-26T18:48:50;95587.09;;;2.26;100.00
22862;BME280;11598;50.652;6.172;2024-02-26T18:58:52;95610.19;;;2.26;100.00
22862;BME280;11598;50.652;6.172;2024-02-26T19:08:53;95622.16;;;2.26;100.00
22862;BME280;11598;50.652;6.172;2024-02-26T19:18:53;95633.06;;;2.29;100.00
22862;BME280;11598;50.652;6.172;2024-02-26T19:28:54;95667.13;;;2.31;100.00
22862;BME280;11598;50.652;6.172;2024-02-26T19:38:54;95671.44;;;2.31;100.00
22862;BME280;11598;50.652;6.172;2024-02-26T19:48:54;95683.41;;;2.30;100.00
22862;BME280;11598;50.652;6.172;2024-02-26T19:58:58;95688.38;;;2.33;100.00
22862;BME280;11598;50.652;6.172;2024-02-26T20:08:58;95705.34;;;2.36;100.00
22862;BME280;11598;50.652;6.172;2024-02-26T20:18:59;95730.97;;;2.36;100.00
22862;BME280;11598;50.652;6.172;2024-02-26T20:28:59;95756.34;;;2.41;100.00
22862;BME280;11598;50.652;6.172;2024-02-26T20:38:59;95766.63;;;2.41;100.00
22862;BME280;11598;50.652;6.172;2024-02-26T20:49:00;95773.56;;;2.39;100.00
22862;BME280;11598;50.652;6.172;2024-02-26T20:59:00;95784.56;;;2.41;100.00
22862;BME280;11598;50.652;6.172;2024-02-26T21:09:01;95804.16;;;2.42;100.00
22862;BME280;11598;50.652;6.172;2024-02-26T21:19:03;95835.81;;;2.41;100.00
22862;BME280;11598;50.652;6.172;2024-02-26T21:29:05;95846.16;;;2.39;100.00
22862;BME280;11598;50.652;6.172;2024-02-26T21:39:06;95866.59;;;2.41;100.00
22862;BME280;11598;50.652;6.172;2024-02-26T21:49:06;95887.09;;;2.41;100.00
22862;BME280;11598;50.652;6.172;2024-02-26T21:59:10;95891.25;;;2.43;100.00
22862;BME280;11598;50.652;6.172;2024-02-26T22:09:10;95905.81;;;2.43;100.00
22862;BME280;11598;50.652;6.172;2024-02-26T22:19:11;95909.19;;;2.43;100.00
22862;BME280;11598;50.652;6.172;2024-02-26T22:29:16;95927.19;;;2.42;100.00
22862;BME280;11598;50.652;6.172;2024-02-26T22:39:17;95940.72;;;2.45;100.00
22862;BME280;11598;50.652;6.172;2024-02-26T22:49:17;95937.44;;;2.42;100.00
22862;BME280;11598;50.652;6.172;2024-02-26T22:59:17;95951.13;;;2.42;100.00
22862;BME280;11598;50.652;6.172;2024-02-26T23:09:18;95970.78;;;2.42;100.00
22862;BME280;11598;50.652;6.172;2024-02-26T23:19:18;95987.16;;;2.39;100.00
22862;BME280;11598;50.652;6.172;2024-02-26T23:29:18;95996.75;;;2.36;100.00
22862;BME280;11598;50.652;6.172;2024-02-26T23:39:19;96006.25;;;2.33;100.00
22862;BME280;11598;50.652;6.172;2024-02-26T23:49:19;96013.00;;;2.35;100.00
22862;BME280;11598;50.652;6.172;2024-02-26T23:59:20;96003.81;;;2.30;100.00
